Time,TemperatureF,DewpointF,PressureIn,WindDirection,WindDirectionDegrees,WindSpeedMPH,WindSpeedGustMPH,Humidity,HourlyPrecipIn,Conditions,Clouds,dailyrainin,SoftwareType,DateUTC
2013-03-27 00:04:00,52.0,41.4,29.85,SW,225,0.0,0.0,67,0.00,,,0.00,VWS V14.01,2013-03-27 07:04:00,
2013-03-27 00:09:00,52.0,41.4,29.85,SSW,202,0.0,2.2,67,0.00,,,0.00,VWS V14.01,2013-03-27 07:09:00,
2013-03-27 00:14:00,51.8,41.6,29.85,SSW,202,2.7,3.6,68,0.00,,,0.00,VWS V14.01,2013-03-27 07:14:00,
2013-03-27 00:19:00,51.8,42.0,29.85,SSW,202,4.0,4.0,69,0.00,,,0.00,VWS V14.01,2013-03-27 07:19:00,
2013-03-27 00:25:00,51.8,42.0,29.85,SW,225,3.6,3.6,69,0.00,,,0.00,VWS V14.01,2013-03-27 07:25:00,
2013-03-27 00:30:00,51.8,42.3,29.85,SSW,202,0.0,4.0,70,0.00,,,0.00,VWS V14.01,2013-03-27 07:30:00,
2013-03-27 00:36:00,52.0,42.5,29.85,SSW,202,2.2,2.2,70,0.00,,,0.00,VWS V14.01,2013-03-27 07:36:00,
2013-03-27 00:41:00,52.0,42.5,29.85,South,180,6.3,6.3,70,0.00,,,0.00,VWS V14.01,2013-03-27 07:41:00,
2013-03-27 00:46:00,51.8,42.7,29.85,South,180,2.7,4.9,71,0.00,,,0.00,VWS V14.01,2013-03-27 07:46:00,
2013-03-27 00:52:00,51.8,43.1,29.85,SSW,202,0.0,0.0,72,0.00,,,0.00,VWS V14.01,2013-03-27 07:52:00,
2013-03-27 00:57:00,51.8,43.1,29.85,SSW,202,4.9,5.8,72,0.00,,,0.00,VWS V14.01,2013-03-27 07:57:00,
2013-03-27 01:02:00,51.8,43.1,29.85,ESE,112,3.1,4.5,72,0.00,,,0.00,VWS V14.01,2013-03-27 08:02:00,
2013-03-27 01:07:00,52.0,42.9,29.85,SSW,202,4.0,5.8,71,0.00,,,0.00,VWS V14.01,2013-03-27 08:07:00,
2013-03-27 01:12:00,52.0,42.9,29.85,SSW,202,6.3,6.3,71,0.00,,,0.00,VWS V14.01,2013-03-27 08:12:00,
2013-03-27 01:18:00,51.8,42.3,29.85,SSE,158,2.2,5.4,70,0.00,,,0.00,VWS V14.01,2013-03-27 08:18:00,
2013-03-27 01:23:00,51.8,42.0,29.85,SSW,202,5.4,6.7,69,0.00,,,0.00,VWS V14.01,2013-03-27 08:23:00,
2013-03-27 01:28:00,51.8,41.6,29.85,SSW,202,5.8,8.3,68,0.00,,,0.00,VWS V14.01,2013-03-27 08:28:00,
2013-03-27 01:34:00,51.8,40.8,29.85,NW,315,0.0,3.1,66,0.00,,,0.00,VWS V14.01,2013-03-27 08:34:00,
2013-03-27 01:39:00,51.8,40.8,29.85,SSW,202,4.0,4.9,66,0.00,,,0.00,VWS V14.01,2013-03-27 08:39:00,
2013-03-27 01:44:00,51.8,40.8,29.85,South,180,7.2,7.2,66,0.00,,,0.00,VWS V14.01,2013-03-27 08:44:00,
2013-03-27 01:49:00,52.0,41.0,29.85,SE,135,0.0,3.1,66,0.00,,,0.00,VWS V14.01,2013-03-27 08:49:00,
2013-03-27 01:54:00,51.8,40.8,29.85,South,180,0.0,2.7,66,0.00,,,0.00,VWS V14.01,2013-03-27 08:54:00,
2013-03-27 02:00:00,51.8,41.2,29.85,WSW,248,2.7,2.7,67,0.00,,,0.00,VWS V14.01,2013-03-27 09:00:00,
2013-03-27 02:05:00,51.8,41.2,29.85,SW,225,0.0,2.2,67,0.00,,,0.00,VWS V14.01,2013-03-27 09:05:00,
2013-03-27 02:10:00,51.8,41.2,29.85,SSW,202,0.0,3.1,67,0.00,,,0.00,VWS V14.01,2013-03-27 09:10:00,
2013-03-27 02:15:00,51.8,41.2,29.85,SSW,202,3.1,3.1,67,0.00,,,0.00,VWS V14.01,2013-03-27 09:15:00,
2013-03-27 02:22:00,51.8,41.2,29.85,SSW,202,0.0,0.0,67,0.00,,,0.00,VWS V14.01,2013-03-27 09:22:00,
2013-03-27 02:27:00,51.8,41.6,29.85,SSW,202,0.0,0.0,68,0.00,,,0.00,VWS V14.01,2013-03-27 09:27:00,
2013-03-27 02:33:00,51.8,41.6,29.85,SW,225,0.0,0.0,68,0.00,,,0.00,VWS V14.01,2013-03-27 09:33:00,
2013-03-27 02:38:00,51.8,42.0,29.85,SSW,202,2.2,2.7,69,0.00,,,0.00,VWS V14.01,2013-03-27 09:38:00,
2013-03-27 02:43:00,52.0,42.5,29.85,SSW,202,0.0,0.0,70,0.00,,,0.00,VWS V14.01,2013-03-27 09:43:00,
2013-03-27 02:48:00,52.0,42.9,29.85,SSW,202,0.0,0.0,71,0.00,,,0.00,VWS V14.01,2013-03-27 09:48:00,
2013-03-27 02:53:00,51.8,42.7,29.85,SSE,158,4.0,4.0,71,0.00,,,0.00,VWS V14.01,2013-03-27 09:53:00,
2013-03-27 02:59:00,52.0,42.9,29.85,SSW,202,0.0,3.1,71,0.00,,,0.00,VWS V14.01,2013-03-27 09:59:00,
2013-03-27 03:04:00,52.0,42.9,29.82,SSW,202,5.4,5.4,71,0.00,,,0.00,VWS V14.01,2013-03-27 10:04:00,
2013-03-27 03:09:00,51.8,42.7,29.82,SSW,202,2.7,2.7,71,0.00,,,0.00,VWS V14.01,2013-03-27 10:09:00,
2013-03-27 03:14:00,51.8,42.7,29.82,SSW,202,5.4,6.3,71,0.00,,,0.00,VWS V14.01,2013-03-27 10:14:00,
2013-03-27 03:20:00,51.8,42.7,29.85,SSW,202,0.0,0.0,71,0.00,,,0.00,VWS V14.01,2013-03-27 10:20:00,
2013-03-27 03:25:00,51.8,42.7,29.85,SSW,202,0.0,0.0,71,0.00,,,0.00,VWS V14.01,2013-03-27 10:25:00,
2013-03-27 03:30:00,51.8,42.7,29.85,SSW,202,0.0,2.7,71,0.00,,,0.00,VWS V14.01,2013-03-27 10:30:00,
2013-03-27 03:35:00,52.0,42.9,29.82,South,180,2.2,2.2,71,0.00,,,0.00,VWS V14.01,2013-03-27 10:35:00,
2013-03-27 03:40:00,52.0,42.9,29.82,WSW,248,0.0,3.6,71,0.00,,,0.00,VWS V14.01,2013-03-27 10:40:00,
2013-03-27 03:46:00,52.2,43.1,29.82,SSE,158,0.0,0.0,71,0.00,,,0.00,VWS V14.01,2013-03-27 10:46:00,
2013-03-27 03:51:00,52.3,43.2,29.82,ESE,112,2.2,2.2,71,0.00,,,0.00,VWS V14.01,2013-03-27 10:51:00,
2013-03-27 03:56:00,52.3,42.9,29.82,SSW,202,2.2,2.7,70,0.00,,,0.00,VWS V14.01,2013-03-27 10:56:00,
2013-03-27 04:01:00,52.3,42.9,29.82,SSW,202,0.0,0.0,70,0.00,,,0.00,VWS V14.01,2013-03-27 11:01:00,
2013-03-27 04:06:00,52.5,43.0,29.82,North,0,0.0,0.0,70,0.00,,,0.00,VWS V14.01,2013-03-27 11:06:00,
2013-03-27 04:11:00,52.5,42.7,29.82,North,0,0.0,3.1,69,0.00,,,0.00,VWS V14.01,2013-03-27 11:11:00,
2013-03-27 04:17:00,52.5,43.0,29.82,North,0,2.7,2.7,70,0.00,,,0.00,VWS V14.01,2013-03-27 11:17:00,
2013-03-27 04:22:00,52.5,43.0,29.82,North,0,0.0,0.0,70,0.00,,,0.00,VWS V14.01,2013-03-27 11:22:00,
2013-03-27 04:27:00,52.5,43.0,29.82,North,0,0.0,0.0,70,0.00,,,0.00,VWS V14.01,2013-03-27 11:27:00,
2013-03-27 04:32:00,52.7,42.8,29.85,North,0,2.2,2.7,69,0.00,,,0.00,VWS V14.01,2013-03-27 11:32:00,
2013-03-27 04:37:00,52.7,42.8,29.85,North,0,0.0,0.0,69,0.00,,,0.00,VWS V14.01,2013-03-27 11:37:00,
2013-03-27 04:43:00,52.9,43.0,29.85,North,0,0.0,0.0,69,0.00,,,0.00,VWS V14.01,2013-03-27 11:43:00,
2013-03-27 04:48:00,52.9,43.0,29.82,North,0,0.0,0.0,69,0.00,,,0.00,VWS V14.01,2013-03-27 11:48:00,
2013-03-27 04:53:00,52.9,42.6,29.82,North,0,0.0,0.0,68,0.00,,,0.00,VWS V14.01,2013-03-27 11:53:00,
2013-03-27 04:58:00,53.1,42.8,29.82,North,0,0.0,0.0,68,0.00,,,0.00,VWS V14.01,2013-03-27 11:58:00,
2013-03-27 05:03:00,53.1,42.4,29.82,North,0,0.0,0.0,67,0.00,,,0.00,VWS V14.01,2013-03-27 12:03:00,
2013-03-27 05:09:00,53.1,42.4,29.82,North,0,0.0,0.0,67,0.00,,,0.00,VWS V14.01,2013-03-27 12:09:00,
2013-03-27 05:14:00,53.1,42.4,29.82,North,0,0.0,0.0,67,0.00,,,0.00,VWS V14.01,2013-03-27 12:14:00,
2013-03-27 05:19:00,53.2,42.2,29.82,NNE,22,0.0,0.0,66,0.00,,,0.00,VWS V14.01,2013-03-27 12:19:00,
2013-03-27 05:24:00,53.2,41.8,29.82,SE,135,3.6,3.6,65,0.00,,,0.00,VWS V14.01,2013-03-27 12:24:00,
2013-03-27 05:29:00,53.4,41.6,29.82,ESE,112,0.0,0.0,64,0.00,,,0.00,VWS V14.01,2013-03-27 12:29:00,
2013-03-27 05:34:00,53.4,40.7,29.82,SSE,158,0.0,2.2,62,0.00,,,0.00,VWS V14.01,2013-03-27 12:34:00,
2013-03-27 05:40:00,53.6,40.9,29.82,SSE,158,0.0,0.0,62,0.00,,,0.00,VWS V14.01,2013-03-27 12:40:00,
2013-03-27 05:45:00,53.6,40.9,29.82,SSE,158,0.0,0.0,62,0.00,,,0.00,VWS V14.01,2013-03-27 12:45:00,
2013-03-27 05:50:00,53.8,40.7,29.82,SSW,202,0.0,2.2,61,0.00,,,0.00,VWS V14.01,2013-03-27 12:50:00,
2013-03-27 05:55:00,54.0,40.8,29.82,SW,225,0.0,0.0,61,0.00,,,0.00,VWS V14.01,2013-03-27 12:55:00,
2013-03-27 06:01:00,54.0,40.8,29.82,SE,135,0.0,0.0,61,0.00,,,0.00,VWS V14.01,2013-03-27 13:01:00,
2013-03-27 06:06:00,54.0,40.4,29.82,WNW,292,0.0,0.0,60,0.00,,,0.00,VWS V14.01,2013-03-27 13:06:00,
2013-03-27 06:11:00,53.8,40.2,29.82,ESE,112,2.7,4.0,60,0.00,,,0.00,VWS V14.01,2013-03-27 13:11:00,
2013-03-27 06:16:00,53.8,40.2,29.82,SSE,158,2.7,2.7,60,0.00,,,0.00,VWS V14.01,2013-03-27 13:16:00,
2013-03-27 06:22:00,53.8,39.8,29.82,SSE,158,0.0,0.0,59,0.00,,,0.00,VWS V14.01,2013-03-27 13:22:00,
2013-03-27 06:27:00,54.0,40.0,29.82,South,180,0.0,2.2,59,0.00,,,0.00,VWS V14.01,2013-03-27 13:27:00,
2013-03-27 06:32:00,53.8,39.8,29.85,SSW,202,2.7,2.7,59,0.00,,,0.00,VWS V14.01,2013-03-27 13:32:00,
2013-03-27 06:37:00,53.8,39.8,29.85,South,180,0.0,2.7,59,0.00,,,0.00,VWS V14.01,2013-03-27 13:37:00,
2013-03-27 06:43:00,53.8,39.8,29.85,ESE,112,0.0,0.0,59,0.00,,,0.00,VWS V14.01,2013-03-27 13:43:00,
2013-03-27 06:48:00,53.8,40.2,29.82,ESE,112,2.2,2.7,60,0.00,,,0.00,VWS V14.01,2013-03-27 13:48:00,
2013-03-27 06:53:00,53.8,40.2,29.82,NW,315,2.2,3.6,60,0.00,,,0.00,VWS V14.01,2013-03-27 13:53:00,
2013-03-27 06:59:00,53.8,40.2,29.82,SSW,202,2.7,2.7,60,0.00,,,0.00,VWS V14.01,2013-03-27 13:59:00,
2013-03-27 07:04:00,53.8,40.7,29.82,SSW,202,3.6,3.6,61,0.00,,,0.00,VWS V14.01,2013-03-27 14:04:00,
2013-03-27 07:09:00,54.0,40.8,29.82,SSW,202,0.0,0.0,61,0.00,,,0.00,VWS V14.01,2013-03-27 14:09:00,
2013-03-27 07:14:00,54.0,40.8,29.82,SSW,202,0.0,0.0,61,0.00,,,0.00,VWS V14.01,2013-03-27 14:14:00,
2013-03-27 07:19:00,54.1,41.4,29.85,ENE,68,0.0,0.0,62,0.00,,,0.00,VWS V14.01,2013-03-27 14:19:00,
2013-03-27 07:24:00,54.1,41.4,29.85,NNW,338,2.2,3.1,62,0.00,,,0.00,VWS V14.01,2013-03-27 14:24:00,
2013-03-27 07:30:00,54.3,42.0,29.85,ENE,68,3.1,3.1,63,0.00,,,0.00,VWS V14.01,2013-03-27 14:30:00,
2013-03-27 07:35:00,54.1,42.2,29.82,ESE,112,0.0,0.0,64,0.00,,,0.00,VWS V14.01,2013-03-27 14:35:00,
2013-03-27 07:40:00,54.3,42.4,29.82,SSE,158,0.0,0.0,64,0.00,,,0.00,VWS V14.01,2013-03-27 14:40:00,
2013-03-27 07:45:00,54.5,42.6,29.82,WNW,292,0.0,0.0,64,0.00,,,0.00,VWS V14.01,2013-03-27 14:45:00,
2013-03-27 07:51:00,54.5,42.6,29.82,SSE,158,0.0,0.0,64,0.00,,,0.00,VWS V14.01,2013-03-27 14:51:00,
2013-03-27 07:56:00,54.7,42.8,29.82,ESE,112,2.7,2.7,64,0.00,,,0.00,VWS V14.01,2013-03-27 14:56:00,
2013-03-27 08:01:00,55.0,43.1,29.85,SSW,202,4.0,4.0,64,0.00,,,0.00,VWS V14.01,2013-03-27 15:01:00,
2013-03-27 08:07:00,55.2,43.3,29.85,East,90,0.0,0.0,64,0.00,,,0.00,VWS V14.01,2013-03-27 15:07:00,
2013-03-27 08:12:00,55.2,43.7,29.85,SE,135,3.6,4.9,65,0.00,,,0.00,VWS V14.01,2013-03-27 15:12:00,
2013-03-27 08:17:00,55.0,43.5,29.85,East,90,3.1,3.1,65,0.00,,,0.00,VWS V14.01,2013-03-27 15:17:00,
2013-03-27 08:23:00,55.0,43.5,29.85,SSW,202,3.6,3.6,65,0.00,,,0.00,VWS V14.01,2013-03-27 15:23:00,
2013-03-27 08:28:00,55.2,43.7,29.85,ESE,112,2.2,2.2,65,0.00,,,0.00,VWS V14.01,2013-03-27 15:28:00,
2013-03-27 08:33:00,55.4,43.4,29.85,SSW,202,2.7,2.7,64,0.00,,,0.00,VWS V14.01,2013-03-27 15:33:00,
2013-03-27 08:38:00,55.8,43.8,29.85,South,180,0.0,0.0,64,0.00,,,0.00,VWS V14.01,2013-03-27 15:38:00,
2013-03-27 08:44:00,55.9,44.0,29.85,ESE,112,0.0,3.1,64,0.00,,,0.00,VWS V14.01,2013-03-27 15:44:00,
2013-03-27 08:49:00,55.9,43.5,29.85,SE,135,3.6,3.6,63,0.00,,,0.00,VWS V14.01,2013-03-27 15:49:00,
2013-03-27 08:54:00,55.9,43.5,29.85,ESE,112,3.6,5.8,63,0.00,,,0.00,VWS V14.01,2013-03-27 15:54:00,
2013-03-27 08:59:00,55.9,44.0,29.85,ENE,68,4.0,4.0,64,0.00,,,0.00,VWS V14.01,2013-03-27 15:59:00,
2013-03-27 09:05:00,56.3,44.7,29.85,ESE,112,0.0,4.0,65,0.00,,,0.00,VWS V14.01,2013-03-27 16:05:00,
2013-03-27 09:10:00,56.3,44.3,29.85,NE,45,0.0,2.2,64,0.00,,,0.00,VWS V14.01,2013-03-27 16:10:00,
2013-03-27 09:15:00,56.3,44.3,29.85,NNE,22,0.0,0.0,64,0.00,,,0.00,VWS V14.01,2013-03-27 16:15:00,
2013-03-27 09:21:00,56.5,44.5,29.85,NW,315,3.6,3.6,64,0.00,,,0.00,VWS V14.01,2013-03-27 16:21:00,
2013-03-27 09:26:00,57.0,44.6,29.85,ESE,112,3.6,3.6,63,0.00,,,0.21,VWS V14.01,2013-03-27 16:26:00,
2013-03-27 09:31:00,57.6,44.2,29.85,SE,135,0.0,0.0,61,0.00,,,0.00,VWS V14.01,2013-03-27 16:31:00,
2013-03-27 09:37:00,57.6,43.4,29.85,SSW,202,0.0,3.6,59,0.00,,,0.00,VWS V14.01,2013-03-27 16:37:00,
2013-03-27 09:42:00,57.6,42.9,29.85,ESE,112,5.8,5.8,58,0.00,,,0.00,VWS V14.01,2013-03-27 16:42:00,
2013-03-27 09:47:00,57.4,42.7,29.88,ESE,112,0.0,3.1,58,0.00,,,0.00,VWS V14.01,2013-03-27 16:47:00,
2013-03-27 09:52:00,57.0,43.3,29.88,ESE,112,3.1,4.0,60,0.00,,,0.00,VWS V14.01,2013-03-27 16:52:00,
2013-03-27 09:57:00,57.0,43.3,29.88,ESE,112,3.1,4.0,60,0.00,,,0.00,VWS V14.01,2013-03-27 16:57:00,
2013-03-27 10:03:00,57.0,43.7,29.85,ESE,112,6.3,6.3,61,0.00,,,0.00,VWS V14.01,2013-03-27 17:03:00,
2013-03-27 10:08:00,56.8,44.0,29.85,ENE,68,4.0,4.0,62,0.00,,,0.00,VWS V14.01,2013-03-27 17:08:00,
2013-03-27 10:13:00,57.0,44.1,29.85,WSW,248,2.7,4.0,62,0.00,,,0.00,VWS V14.01,2013-03-27 17:13:00,
2013-03-27 10:18:00,57.2,43.9,29.85,ESE,112,3.6,3.6,61,0.00,,,0.00,VWS V14.01,2013-03-27 17:18:00,
2013-03-27 10:23:00,57.2,44.3,29.85,ESE,112,5.4,5.4,62,0.00,,,0.00,VWS V14.01,2013-03-27 17:23:00,
2013-03-27 10:29:00,57.2,44.3,29.85,ESE,112,4.0,4.0,62,0.00,,,0.00,VWS V14.01,2013-03-27 17:29:00,
2013-03-27 10:34:00,57.2,44.3,29.88,ESE,112,3.6,4.0,62,0.00,,,0.00,VWS V14.01,2013-03-27 17:34:00,
2013-03-27 10:39:00,57.4,44.9,29.88,East,90,4.0,5.8,63,0.00,,,0.00,VWS V14.01,2013-03-27 17:39:00,
2013-03-27 10:44:00,57.7,45.2,29.88,East,90,3.1,3.6,63,0.00,,,0.00,VWS V14.01,2013-03-27 17:44:00,
2013-03-27 10:49:00,57.9,44.6,29.88,SSW,202,0.0,0.0,61,0.00,,,0.00,VWS V14.01,2013-03-27 17:49:00,
2013-03-27 10:54:00,57.4,43.6,29.88,SW,225,0.0,3.1,60,0.00,,,0.00,VWS V14.01,2013-03-27 17:54:00,
2013-03-27 10:59:00,57.6,44.2,29.88,West,270,0.0,2.2,61,0.00,,,0.00,VWS V14.01,2013-03-27 17:59:00,
2013-03-27 11:05:00,57.7,44.0,29.88,NNW,338,2.7,3.1,60,0.00,,,0.00,VWS V14.01,2013-03-27 18:05:00,
2013-03-27 11:10:00,57.2,43.9,29.88,North,0,0.0,3.1,61,0.00,,,0.00,VWS V14.01,2013-03-27 18:10:00,
2013-03-27 11:16:00,57.2,43.9,29.88,NNW,338,4.9,4.9,61,0.00,,,0.00,VWS V14.01,2013-03-27 18:16:00,
2013-03-27 11:21:00,57.6,44.2,29.88,NE,45,3.1,3.1,61,0.00,,,0.00,VWS V14.01,2013-03-27 18:21:00,
2013-03-27 11:26:00,57.6,44.2,29.88,NNW,338,3.1,3.1,61,0.00,,,0.00,VWS V14.01,2013-03-27 18:26:00,
2013-03-27 11:32:00,56.8,44.0,29.88,NNE,22,5.4,5.4,62,0.00,,,0.00,VWS V14.01,2013-03-27 18:32:00,
2013-03-27 11:37:00,56.8,44.4,29.88,NNE,22,3.1,3.6,63,0.00,,,0.00,VWS V14.01,2013-03-27 18:37:00,
2013-03-27 11:42:00,57.2,44.3,29.88,NNW,338,3.6,3.6,62,0.00,,,0.00,VWS V14.01,2013-03-27 18:42:00,
2013-03-27 11:47:00,57.4,44.1,29.88,North,0,4.9,4.9,61,0.00,,,0.00,VWS V14.01,2013-03-27 18:47:00,
2013-03-27 11:52:00,57.2,44.3,29.88,NNW,338,3.1,4.0,62,0.00,,,0.00,VWS V14.01,2013-03-27 18:52:00,
2013-03-27 11:57:00,57.2,44.3,29.88,NNW,338,3.1,3.1,62,0.00,,,0.00,VWS V14.01,2013-03-27 18:57:00,
2013-03-27 12:03:00,57.2,43.9,29.88,NNW,338,3.1,4.0,61,0.00,,,0.00,VWS V14.01,2013-03-27 19:03:00,
2013-03-27 12:08:00,57.7,44.4,29.88,North,0,0.0,0.0,61,0.00,,,0.00,VWS V14.01,2013-03-27 19:08:00,
2013-03-27 12:13:00,58.1,44.3,29.88,NNW,338,0.0,2.7,60,0.00,,,0.00,VWS V14.01,2013-03-27 19:13:00,
2013-03-27 12:18:00,57.9,44.1,29.88,NNW,338,3.6,3.6,60,0.00,,,0.00,VWS V14.01,2013-03-27 19:18:00,
2013-03-27 12:24:00,58.1,44.3,29.88,NNW,338,2.7,2.7,60,0.00,,,0.00,VWS V14.01,2013-03-27 19:24:00,
2013-03-27 12:29:00,58.5,44.6,29.88,ENE,68,2.7,3.1,60,0.00,,,0.00,VWS V14.01,2013-03-27 19:29:00,
2013-03-27 12:34:00,58.5,44.2,29.88,NNW,338,5.4,5.4,59,0.00,,,0.00,VWS V14.01,2013-03-27 19:34:00,
2013-03-27 12:39:00,58.3,44.0,29.88,NNE,22,4.0,4.0,59,0.00,,,0.00,VWS V14.01,2013-03-27 19:39:00,
2013-03-27 12:44:00,58.8,44.5,29.88,NNE,22,2.7,2.7,59,0.00,,,0.00,VWS V14.01,2013-03-27 19:44:00,
2013-03-27 12:50:00,58.8,44.1,29.88,NNE,22,4.5,5.4,58,0.00,,,0.00,VWS V14.01,2013-03-27 19:50:00,
2013-03-27 12:55:00,58.8,44.5,29.88,NNW,338,4.9,5.4,59,0.00,,,0.00,VWS V14.01,2013-03-27 19:55:00,
2013-03-27 13:00:00,58.5,44.6,29.88,NNW,338,4.0,4.0,60,0.00,,,0.00,VWS V14.01,2013-03-27 20:00:00,
2013-03-27 13:06:00,59.4,44.6,29.88,NNW,338,2.2,2.7,58,0.00,,,0.21,VWS V14.01,2013-03-27 20:06:00,
2013-03-27 13:11:00,59.7,44.5,29.88,NNW,338,2.2,3.1,57,0.00,,,0.00,VWS V14.01,2013-03-27 20:11:00,
2013-03-27 13:16:00,60.4,45.6,29.88,SSW,202,4.0,4.0,58,0.00,,,0.00,VWS V14.01,2013-03-27 20:16:00,
2013-03-27 13:21:00,61.0,45.7,29.88,ENE,68,3.6,3.6,57,0.00,,,0.00,VWS V14.01,2013-03-27 20:21:00,
2013-03-27 13:27:00,61.2,45.4,29.88,SSW,202,2.7,5.4,56,0.00,,,0.00,VWS V14.01,2013-03-27 20:27:00,
2013-03-27 13:32:00,60.6,45.3,29.88,SSW,202,5.4,5.4,57,0.00,,,0.00,VWS V14.01,2013-03-27 20:32:00,
2013-03-27 13:37:00,60.3,45.4,29.88,SSW,202,5.4,5.4,58,0.00,,,0.00,VWS V14.01,2013-03-27 20:37:00,
2013-03-27 13:42:00,60.3,45.9,29.88,SSW,202,7.6,7.6,59,0.00,,,0.00,VWS V14.01,2013-03-27 20:42:00,
2013-03-27 13:47:00,60.3,45.9,29.88,North,0,3.1,7.6,59,0.00,,,0.00,VWS V14.01,2013-03-27 20:47:00,
2013-03-27 13:52:00,60.4,46.1,29.88,South,180,4.0,4.9,59,0.00,,,0.00,VWS V14.01,2013-03-27 20:52:00,
2013-03-27 13:58:00,60.3,46.3,29.88,ESE,112,0.0,4.0,60,0.00,,,0.00,VWS V14.01,2013-03-27 20:58:00,
2013-03-27 14:03:00,60.1,46.6,29.88,SSW,202,4.0,4.0,61,0.00,,,0.00,VWS V14.01,2013-03-27 21:03:00,
2013-03-27 14:08:00,60.1,47.0,29.88,SSW,202,2.2,2.7,62,0.00,,,0.00,VWS V14.01,2013-03-27 21:08:00,
2013-03-27 14:14:00,60.4,47.4,29.88,SSE,158,4.0,4.0,62,0.00,,,0.00,VWS V14.01,2013-03-27 21:14:00,
2013-03-27 14:19:00,60.4,47.4,29.88,SSE,158,3.6,3.6,62,0.00,,,0.00,VWS V14.01,2013-03-27 21:19:00,
2013-03-27 14:24:00,60.4,47.4,29.88,SSW,202,4.0,4.0,62,0.00,,,0.00,VWS V14.01,2013-03-27 21:24:00,
2013-03-27 14:29:00,60.6,47.1,29.88,SSW,202,5.4,5.4,61,0.00,,,0.00,VWS V14.01,2013-03-27 21:29:00,
2013-03-27 14:34:00,60.1,47.0,29.88,ENE,68,3.1,4.0,62,0.00,,,0.00,VWS V14.01,2013-03-27 21:34:00,
2013-03-27 14:40:00,60.1,47.0,29.88,WSW,248,2.2,2.2,62,0.00,,,0.00,VWS V14.01,2013-03-27 21:40:00,
2013-03-27 14:45:00,60.1,47.0,29.88,SSW,202,4.0,6.3,62,0.00,,,0.00,VWS V14.01,2013-03-27 21:45:00,
2013-03-27 14:50:00,59.7,47.1,29.88,SSW,202,4.9,5.8,63,0.00,,,0.00,VWS V14.01,2013-03-27 21:50:00,
2013-03-27 14:55:00,59.2,47.4,29.88,SSE,158,6.7,6.7,65,0.00,,,0.00,VWS V14.01,2013-03-27 21:55:00,
2013-03-27 15:01:00,58.3,47.4,29.88,South,180,5.4,6.7,67,0.00,,,0.00,VWS V14.01,2013-03-27 22:01:00,
2013-03-27 15:06:00,58.1,48.4,29.91,SSW,202,0.0,4.0,70,0.00,,,0.00,VWS V14.01,2013-03-27 22:06:00,
2013-03-27 15:12:00,58.1,48.8,29.91,WNW,292,3.1,6.7,71,0.00,,,0.00,VWS V14.01,2013-03-27 22:12:00,
2013-03-27 15:17:00,57.9,48.6,29.88,SSW,202,6.3,10.5,71,0.00,,,0.00,VWS V14.01,2013-03-27 22:17:00,
2013-03-27 15:23:00,57.9,48.6,29.88,WNW,292,2.7,3.6,71,0.00,,,0.00,VWS V14.01,2013-03-27 22:23:00,
2013-03-27 15:28:00,58.1,48.4,29.88,SSE,158,5.4,8.7,70,0.00,,,0.00,VWS V14.01,2013-03-27 22:28:00,
2013-03-27 15:33:00,57.7,48.0,29.88,South,180,10.1,10.5,70,0.00,,,0.00,VWS V14.01,2013-03-27 22:33:00,
2013-03-27 15:39:00,57.9,48.2,29.88,SSW,202,4.0,4.0,70,0.00,,,0.00,VWS V14.01,2013-03-27 22:39:00,
2013-03-27 15:44:00,57.9,48.2,29.88,SW,225,7.2,7.2,70,0.00,,,0.00,VWS V14.01,2013-03-27 22:44:00,
2013-03-27 15:49:00,58.1,48.4,29.88,ESE,112,0.0,2.2,70,0.00,,,0.00,VWS V14.01,2013-03-27 22:49:00,
2013-03-27 15:54:00,58.6,48.1,29.88,WSW,248,3.1,4.9,68,0.00,,,0.00,VWS V14.01,2013-03-27 22:54:00,
2013-03-27 15:59:00,58.8,47.9,29.88,SW,225,2.7,3.6,67,0.00,,,0.00,VWS V14.01,2013-03-27 22:59:00,
2013-03-27 16:05:00,59.2,47.8,29.88,SSW,202,3.6,3.6,66,0.00,,,0.00,VWS V14.01,2013-03-27 23:05:00,
2013-03-27 16:10:00,58.6,47.3,29.88,East,90,2.7,2.7,66,0.00,,,0.00,VWS V14.01,2013-03-27 23:10:00,
2013-03-27 16:15:00,58.8,47.5,29.88,SSE,158,3.1,3.6,66,0.00,,,0.00,VWS V14.01,2013-03-27 23:15:00,
2013-03-27 16:20:00,58.1,46.8,29.88,SSE,158,7.6,8.3,66,0.00,,,0.00,VWS V14.01,2013-03-27 23:20:00,
2013-03-27 16:25:00,57.7,47.3,29.88,SSW,202,4.5,6.7,68,0.00,,,0.00,VWS V14.01,2013-03-27 23:25:00,
2013-03-27 16:30:00,57.6,47.5,29.88,NNE,22,3.1,3.1,69,0.00,,,0.00,VWS V14.01,2013-03-27 23:30:00,
2013-03-27 16:36:00,58.1,48.0,29.88,SSW,202,2.7,2.7,69,0.00,,,0.00,VWS V14.01,2013-03-27 23:36:00,
2013-03-27 16:41:00,58.1,48.0,29.88,WNW,292,0.0,4.0,69,0.00,,,0.00,VWS V14.01,2013-03-27 23:41:00,
2013-03-27 16:46:00,58.3,48.2,29.88,SSW,202,4.9,4.9,69,0.00,,,0.00,VWS V14.01,2013-03-27 23:46:00,
2013-03-27 16:52:00,58.5,48.0,29.88,SSW,202,3.6,3.6,68,0.00,,,0.00,VWS V14.01,2013-03-27 23:52:00,
2013-03-27 16:57:00,58.3,47.8,29.88,SW,225,5.8,5.8,68,0.00,,,0.00,VWS V14.01,2013-03-27 23:57:00,
2013-03-27 17:02:00,58.1,48.0,29.88,WNW,292,2.7,4.0,69,0.00,,,0.00,VWS V14.01,2013-03-28 00:02:00,
2013-03-27 17:07:00,58.1,48.0,29.88,ESE,112,2.2,3.6,69,0.00,,,0.00,VWS V14.01,2013-03-28 00:07:00,
2013-03-27 17:12:00,58.3,48.2,29.88,ENE,68,0.0,0.0,69,0.00,,,0.00,VWS V14.01,2013-03-28 00:12:00,
2013-03-27 17:18:00,58.5,48.3,29.88,East,90,4.0,4.0,69,0.00,,,0.00,VWS V14.01,2013-03-28 00:18:00,
2013-03-27 17:23:00,58.1,48.0,29.88,South,180,3.1,8.3,69,0.00,,,0.00,VWS V14.01,2013-03-28 00:23:00,
2013-03-27 17:28:00,57.9,48.2,29.88,SSE,158,3.1,4.0,70,0.00,,,0.00,VWS V14.01,2013-03-28 00:28:00,
2013-03-27 17:33:00,57.7,48.0,29.88,SE,135,4.5,5.8,70,0.00,,,0.00,VWS V14.01,2013-03-28 00:33:00,
2013-03-27 17:38:00,57.9,48.6,29.88,SSW,202,3.6,8.7,71,0.00,,,0.00,VWS V14.01,2013-03-28 00:38:00,
2013-03-27 17:44:00,57.9,48.6,29.88,SSW,202,4.5,4.5,71,0.00,,,0.00,VWS V14.01,2013-03-28 00:44:00,
2013-03-27 17:49:00,58.1,48.8,29.88,WSW,248,0.0,3.1,71,0.00,,,0.00,VWS V14.01,2013-03-28 00:49:00,
2013-03-27 17:54:00,57.9,48.6,29.88,SE,135,4.0,8.3,71,0.00,,,0.00,VWS V14.01,2013-03-28 00:54:00,
2013-03-27 17:59:00,57.6,48.2,29.88,West,270,3.1,3.1,71,0.00,,,0.00,VWS V14.01,2013-03-28 00:59:00,
2013-03-27 18:04:00,57.6,48.6,29.88,SSW,202,0.0,3.1,72,0.00,,,0.00,VWS V14.01,2013-03-28 01:04:00,
2013-03-27 18:09:00,57.7,48.8,29.88,WSW,248,4.0,4.0,72,0.00,,,0.00,VWS V14.01,2013-03-28 01:09:00,
2013-03-27 18:15:00,57.0,48.5,29.88,SSW,202,4.0,8.1,73,0.00,,,0.00,VWS V14.01,2013-03-28 01:15:00,
2013-03-27 18:20:00,57.0,48.8,29.88,SSW,202,3.6,3.6,74,0.00,,,0.00,VWS V14.01,2013-03-28 01:20:00,
2013-03-27 18:25:00,57.0,48.8,29.88,NW,315,2.7,3.6,74,0.00,,,0.00,VWS V14.01,2013-03-28 01:25:00,
2013-03-27 18:30:00,57.2,49.0,29.88,SSW,202,4.0,4.0,74,0.00,,,0.00,VWS V14.01,2013-03-28 01:30:00,
2013-03-27 18:35:00,57.2,49.0,29.88,SSW,202,3.1,3.1,74,0.00,,,0.00,VWS V14.01,2013-03-28 01:35:00,
2013-03-27 18:41:00,57.0,48.8,29.88,SSW,202,5.8,5.8,74,0.00,,,0.00,VWS V14.01,2013-03-28 01:41:00,
2013-03-27 18:46:00,57.0,48.8,29.88,East,90,2.7,3.6,74,0.00,,,0.00,VWS V14.01,2013-03-28 01:46:00,
2013-03-27 18:52:00,56.8,49.0,29.88,SSE,158,2.7,3.6,75,0.00,,,0.00,VWS V14.01,2013-03-28 01:52:00,
2013-03-27 18:57:00,56.8,49.0,29.88,South,180,2.7,2.7,75,0.00,,,0.00,VWS V14.01,2013-03-28 01:57:00,
2013-03-27 19:02:00,56.7,48.8,29.88,South,180,3.6,4.0,75,0.00,,,0.00,VWS V14.01,2013-03-28 02:02:00,
2013-03-27 19:08:00,56.3,48.5,29.88,ESE,112,6.7,6.7,75,0.00,,,0.00,VWS V14.01,2013-03-28 02:08:00,
2013-03-27 19:13:00,56.1,48.7,29.88,SSW,202,4.0,4.5,76,0.00,,,0.00,VWS V14.01,2013-03-28 02:13:00,
2013-03-27 19:18:00,56.1,49.0,29.88,SE,135,4.0,4.0,77,0.00,,,0.00,VWS V14.01,2013-03-28 02:18:00,
2013-03-27 19:24:00,56.3,49.5,29.88,ENE,68,0.0,0.0,78,0.00,,,0.00,VWS V14.01,2013-03-28 02:24:00,
2013-03-27 19:30:00,56.1,49.4,29.88,SSW,202,2.7,3.1,78,0.00,,,0.00,VWS V14.01,2013-03-28 02:30:00,
2013-03-27 19:35:00,55.9,49.2,29.88,ENE,68,2.2,2.2,78,0.00,,,0.00,VWS V14.01,2013-03-28 02:35:00,
2013-03-27 19:40:00,55.9,49.5,29.88,SSW,202,2.7,2.7,79,0.00,,,0.00,VWS V14.01,2013-03-28 02:40:00,
2013-03-27 19:45:00,55.9,49.5,29.88,ESE,112,3.6,3.6,79,0.00,,,0.00,VWS V14.01,2013-03-28 02:45:00,
2013-03-27 19:51:00,55.8,49.4,29.88,SSW,202,4.5,4.5,79,0.00,,,0.00,VWS V14.01,2013-03-28 02:51:00,
2013-03-27 19:56:00,55.8,49.4,29.88,SSW,202,3.6,4.0,79,0.00,,,0.00,VWS V14.01,2013-03-28 02:56:00,
2013-03-27 20:02:00,55.6,49.5,29.88,SSE,158,2.7,4.9,80,0.00,,,0.00,VWS V14.01,2013-03-28 03:02:00,
2013-03-27 20:07:00,55.8,49.7,29.88,South,180,3.6,3.6,80,0.00,,,0.00,VWS V14.01,2013-03-28 03:07:00,
2013-03-27 20:12:00,55.6,49.5,29.88,SE,135,0.0,6.3,80,0.00,,,0.00,VWS V14.01,2013-03-28 03:12:00,
2013-03-27 20:18:00,55.6,49.5,29.88,South,180,5.4,5.4,80,0.00,,,0.00,VWS V14.01,2013-03-28 03:18:00,
2013-03-27 20:23:00,55.6,49.5,29.88,SSW,202,4.0,4.0,80,0.00,,,0.00,VWS V14.01,2013-03-28 03:23:00,
2013-03-27 20:28:00,55.6,49.5,29.88,South,180,2.2,2.2,80,0.00,,,0.00,VWS V14.01,2013-03-28 03:28:00,
2013-03-27 20:33:00,55.6,49.5,29.88,NNE,22,0.0,0.0,80,0.00,,,0.00,VWS V14.01,2013-03-28 03:33:00,
2013-03-27 20:38:00,55.9,50.2,29.88,South,180,0.0,0.0,81,0.00,,,0.00,VWS V14.01,2013-03-28 03:38:00,
2013-03-27 20:43:00,55.9,49.9,29.88,SSE,158,0.0,2.7,80,0.00,,,0.00,VWS V14.01,2013-03-28 03:43:00,
2013-03-27 20:48:00,55.8,49.7,29.91,SSW,202,3.1,4.9,80,0.00,,,0.00,VWS V14.01,2013-03-28 03:48:00,
2013-03-27 20:54:00,55.9,49.9,29.91,SSW,202,0.0,0.0,80,0.00,,,0.00,VWS V14.01,2013-03-28 03:54:00,
2013-03-27 20:59:00,55.9,49.9,29.91,SSW,202,5.4,5.4,80,0.00,,,0.00,VWS V14.01,2013-03-28 03:59:00,
2013-03-27 21:00:00,55.9,49.9,29.91,SSW,202,0.0,4.0,80,0.00,,,0.00,VWS V14.01,2013-03-28 04:00:00,
2013-03-27 21:01:00,55.9,49.9,29.91,South,180,0.0,4.0,80,0.00,,,0.00,VWS V14.01,2013-03-28 04:01:00,
2013-03-27 21:02:00,55.9,49.5,29.91,SSW,202,2.2,2.7,79,0.00,,,0.00,VWS V14.01,2013-03-28 04:02:00,
2013-03-27 21:07:00,55.9,49.5,29.91,ESE,112,0.0,0.0,79,0.00,,,0.00,VWS V14.01,2013-03-28 04:07:00,
2013-03-27 21:13:00,56.1,49.7,29.91,SE,135,0.0,0.0,79,0.00,,,0.00,VWS V14.01,2013-03-28 04:13:00,
2013-03-27 21:18:00,56.1,49.7,29.91,WNW,292,3.1,3.1,79,0.00,,,0.00,VWS V14.01,2013-03-28 04:18:00,
2013-03-27 21:23:00,56.1,49.7,29.91,North,0,2.7,3.6,79,0.00,,,0.00,VWS V14.01,2013-03-28 04:23:00,
2013-03-27 21:28:00,56.3,49.5,29.91,South,180,2.2,2.7,78,0.00,,,0.00,VWS V14.01,2013-03-28 04:28:00,
2013-03-27 21:34:00,56.1,49.4,29.91,WSW,248,0.0,2.2,78,0.00,,,0.00,VWS V14.01,2013-03-28 04:34:00,
2013-03-27 21:39:00,55.9,48.8,29.91,South,180,3.6,6.3,77,0.00,,,0.00,VWS V14.01,2013-03-28 04:39:00,
2013-03-27 21:44:00,55.9,48.8,29.91,ESE,112,2.7,2.7,77,0.00,,,0.00,VWS V14.01,2013-03-28 04:44:00,
2013-03-27 21:49:00,55.9,48.8,29.91,South,180,3.6,4.0,77,0.00,,,0.00,VWS V14.01,2013-03-28 04:49:00,
2013-03-27 21:55:00,55.9,48.8,29.91,SW,225,0.0,0.0,77,0.00,,,0.00,VWS V14.01,2013-03-28 04:55:00,
2013-03-27 22:00:00,56.1,49.0,29.91,ENE,68,0.0,2.7,77,0.00,,,0.00,VWS V14.01,2013-03-28 05:00:00,
2013-03-27 22:06:00,56.1,49.0,29.91,SSW,202,3.6,3.6,77,0.00,,,0.00,VWS V14.01,2013-03-28 05:06:00,
2013-03-27 22:11:00,56.1,49.4,29.91,South,180,0.0,2.2,78,0.00,,,0.00,VWS V14.01,2013-03-28 05:11:00,
2013-03-27 22:16:00,55.9,49.2,29.91,SW,225,3.1,3.6,78,0.00,,,0.00,VWS V14.01,2013-03-28 05:16:00,
2013-03-27 22:21:00,55.9,49.2,29.91,SW,225,3.1,4.0,78,0.00,,,0.00,VWS V14.01,2013-03-28 05:21:00,
2013-03-27 22:27:00,55.8,49.4,29.91,SSW,202,0.0,3.1,79,0.00,,,0.00,VWS V14.01,2013-03-28 05:27:00,
2013-03-27 22:32:00,55.6,49.2,29.91,SSE,158,3.1,3.6,79,0.00,,,0.00,VWS V14.01,2013-03-28 05:32:00,
2013-03-27 22:37:00,55.6,49.5,29.91,South,180,0.0,3.1,80,0.00,,,0.00,VWS V14.01,2013-03-28 05:37:00,
2013-03-27 22:43:00,55.6,49.5,29.91,SSW,202,3.6,5.4,80,0.00,,,0.00,VWS V14.01,2013-03-28 05:43:00,
2013-03-27 22:48:00,55.8,50.0,29.91,ESE,112,0.0,3.1,81,0.00,,,0.00,VWS V14.01,2013-03-28 05:48:00,
2013-03-27 22:53:00,55.9,50.2,29.91,SW,225,0.0,0.0,81,0.00,,,0.00,VWS V14.01,2013-03-28 05:53:00,
2013-03-27 22:59:00,55.9,49.9,29.91,North,0,0.0,2.2,80,0.00,,,0.00,VWS V14.01,2013-03-28 05:59:00,
2013-03-27 23:04:00,55.9,49.9,29.91,SSW,202,0.0,2.7,80,0.00,,,0.00,VWS V14.01,2013-03-28 06:04:00,
2013-03-27 23:09:00,55.9,49.5,29.91,SSW,202,0.0,4.0,79,0.00,,,0.00,VWS V14.01,2013-03-28 06:09:00,
2013-03-27 23:14:00,55.9,49.5,29.91,South,180,0.0,2.2,79,0.00,,,0.00,VWS V14.01,2013-03-28 06:14:00,
2013-03-27 23:19:00,55.8,49.0,29.91,SW,225,2.7,2.7,78,0.00,,,0.00,VWS V14.01,2013-03-28 06:19:00,
2013-03-27 23:25:00,55.6,48.5,29.91,SSW,202,2.7,4.0,77,0.00,,,0.00,VWS V14.01,2013-03-28 06:25:00,
2013-03-27 23:30:00,55.8,48.7,29.91,WNW,292,0.0,3.1,77,0.00,,,0.00,VWS V14.01,2013-03-28 06:30:00,
2013-03-27 23:35:00,55.9,48.8,29.91,SSW,202,4.0,4.5,77,0.00,,,0.00,VWS V14.01,2013-03-28 06:35:00,
2013-03-27 23:41:00,55.9,48.8,29.91,SE,135,0.0,3.6,77,0.00,,,0.00,VWS V14.01,2013-03-28 06:41:00,
2013-03-27 23:47:00,55.9,48.5,29.91,SSW,202,3.6,4.9,76,0.00,,,0.00,VWS V14.01,2013-03-28 06:47:00,
2013-03-27 23:52:00,55.9,48.5,29.91,South,180,0.0,0.0,76,0.00,,,0.00,VWS V14.01,2013-03-28 06:52:00,
2013-03-27 23:57:00,55.9,48.5,29.91,SSW,202,3.6,3.6,76,0.00,,,0.00,VWS V14.01,2013-03-28 06:57:00,